createdAt,value
2018-06-17T00:00:01.621Z,1011.41
2018-06-17T00:05:01.395Z,1011.41
2018-06-17T00:10:01.431Z,1011.3
2018-06-17T00:15:01.364Z,1011.3
2018-06-17T00:21:01.448Z,1011.45
2018-06-17T00:26:02.462Z,1011.45
2018-06-17T00:31:01.429Z,1011.7
2018-06-17T00:36:01.376Z,1011.7
2018-06-17T00:41:01.479Z,1011.54
2018-06-17T00:46:01.374Z,1011.54
2018-06-17T00:51:01.487Z,1011.51
2018-06-17T00:56:01.383Z,1011.51
2018-06-17T01:11:01.556Z,1011.15
2018-06-17T01:16:01.405Z,1011.15
2018-06-17T01:31:01.549Z,1011.1
2018-06-17T01:46:01.374Z,1011.16
2018-06-17T01:56:01.407Z,1011.05
2018-06-17T02:11:01.381Z,1011.04
2018-06-17T02:26:01.434Z,1010.89
2018-06-17T02:41:01.403Z,1010.78
2018-06-17T02:46:01.377Z,1010.78
2018-06-17T02:56:01.370Z,1010.71
2018-06-17T03:12:01.309Z,1010.75
2018-06-17T03:27:01.359Z,1010.75
2018-06-17T03:42:01.358Z,1010.75
2018-06-17T03:52:01.376Z,1010.7
2018-06-17T04:07:01.388Z,1010.65
2018-06-17T04:22:01.372Z,1010.66
2018-06-17T04:27:01.400Z,1010.66
2018-06-17T04:32:01.364Z,1010.64
2018-06-17T04:37:01.404Z,1010.64
2018-06-17T04:42:01.346Z,1010.68
2018-06-17T04:47:01.393Z,1010.68
2018-06-17T04:52:01.349Z,1010.49
2018-06-17T04:57:01.458Z,1010.49
2018-06-17T05:02:01.380Z,1010.64
2018-06-17T05:07:01.363Z,1010.64
2018-06-17T05:17:01.410Z,1010.66
2018-06-17T05:32:01.259Z,1010.5
2018-06-17T05:37:01.379Z,1010.5
2018-06-17T05:42:01.454Z,1010.57
2018-06-17T05:47:01.476Z,1010.57
2018-06-17T05:52:01.603Z,1010.5
2018-06-17T06:02:01.229Z,1010.4
2018-06-17T06:07:01.507Z,1010.4
2018-06-17T06:22:01.530Z,1010.52
2018-06-17T06:33:01.446Z,1010.55
2018-06-17T06:38:02.482Z,1010.68
2018-06-17T06:43:01.459Z,1010.68
2018-06-17T06:58:01.501Z,1010.65
2018-06-17T07:08:01.534Z,1010.53
2018-06-17T07:13:01.366Z,1010.53
2018-06-17T07:18:01.430Z,1010.59
2018-06-17T07:23:01.414Z,1010.59
2018-06-17T07:28:01.552Z,1010.61
2018-06-17T07:33:01.395Z,1010.61
2018-06-17T07:38:01.468Z,1010.62
2018-06-17T07:43:01.430Z,1010.62
2018-06-17T07:48:01.472Z,1010.63
2018-06-17T07:53:01.427Z,1010.63
2018-06-17T07:58:01.697Z,1010.6
2018-06-17T08:03:01.396Z,1010.6
2018-06-17T08:08:01.568Z,1010.59
2018-06-17T08:13:01.402Z,1010.59
2018-06-17T08:23:01.632Z,1010.56
2018-06-17T08:33:01.377Z,1010.46
2018-06-17T08:43:01.459Z,1010.69
2018-06-17T08:48:01.512Z,1010.65
2018-06-17T08:53:01.354Z,1010.65
2018-06-17T08:58:01.706Z,1010.62
2018-06-17T09:03:01.545Z,1010.62
2018-06-17T09:08:01.635Z,1010.72
2018-06-17T09:18:01.310Z,1010.76
2018-06-17T09:33:01.256Z,1010.9
2018-06-17T09:43:01.527Z,1010.92
2018-06-17T09:48:01.473Z,1010.92
2018-06-17T10:03:01.209Z,1010.95
2018-06-17T10:13:01.508Z,1011.01
2018-06-17T10:18:01.526Z,1010.99
2018-06-17T10:23:01.415Z,1010.99
2018-06-17T10:33:01.211Z,1011.03
2018-06-17T10:38:01.540Z,1011.39
2018-06-17T10:43:01.392Z,1011.39
2018-06-17T10:48:01.419Z,1011.39
2018-06-17T10:53:01.592Z,1011.39
2018-06-17T10:58:01.541Z,1011.36
2018-06-17T11:13:01.566Z,1011.6
2018-06-17T11:18:01.530Z,1011.5
2018-06-17T11:28:01.460Z,1011.41
2018-06-17T11:33:01.380Z,1011.41
2018-06-17T11:38:01.427Z,1011.39
2018-06-17T11:43:01.405Z,1011.39
2018-06-17T11:48:01.522Z,1011.66
2018-06-17T11:53:01.417Z,1011.66
2018-06-17T11:58:01.458Z,1011.52
2018-06-17T12:03:01.391Z,1011.52
2018-06-17T12:08:01.510Z,1011.62
2018-06-17T12:13:01.487Z,1011.62
2018-06-17T12:18:01.532Z,1011.82
2018-06-17T12:23:01.388Z,1011.82
2018-06-17T12:28:01.519Z,1012.05
2018-06-17T12:33:01.391Z,1012.05
2018-06-17T12:38:01.419Z,1012.05
2018-06-17T12:43:01.397Z,1012.05
2018-06-17T12:48:01.451Z,1012.07
2018-06-17T12:53:01.445Z,1012.07
2018-06-17T12:58:01.541Z,1012.14
2018-06-17T13:03:01.436Z,1012.14
2018-06-17T13:08:01.492Z,1012.24
2018-06-17T13:13:01.432Z,1012.24
2018-06-17T13:18:01.467Z,1012.13
2018-06-17T13:23:01.468Z,1012.13
2018-06-17T13:28:01.558Z,1012.2
2018-06-17T13:33:01.530Z,1012.2
2018-06-17T13:39:01.470Z,1012.25
2018-06-17T13:49:01.320Z,1012.27
2018-06-17T13:54:01.422Z,1012.27
2018-06-17T13:59:01.529Z,1012.43
2018-06-17T14:09:01.491Z,1012.61
2018-06-17T14:14:01.395Z,1012.61
2018-06-17T14:19:01.512Z,1012.62
2018-06-17T14:24:01.522Z,1012.62
2018-06-17T14:34:01.277Z,1012.89
2018-06-17T14:39:01.556Z,1012.96
2018-06-17T14:44:01.457Z,1012.96
2018-06-17T14:59:01.458Z,1012.92
2018-06-17T15:04:01.474Z,1012.92
2018-06-17T15:14:01.502Z,1013.06
2018-06-17T15:29:01.497Z,1013.12
2018-06-17T15:34:01.457Z,1013.12
2018-06-17T15:39:01.439Z,1013.17
2018-06-17T15:44:01.492Z,1013.17
2018-06-17T15:49:01.525Z,1013.21
2018-06-17T15:59:01.517Z,1013.22
2018-06-17T16:04:01.376Z,1013.22
2018-06-17T16:09:01.446Z,1013.07
2018-06-17T16:14:01.399Z,1013.07
2018-06-17T16:19:01.451Z,1013.2
2018-06-17T16:25:01.588Z,1013.2
2018-06-17T16:30:01.603Z,1013.34
2018-06-17T16:35:01.522Z,1013.34
2018-06-17T16:40:01.657Z,1013.48
2018-06-17T16:45:01.511Z,1013.48
2018-06-17T16:50:01.549Z,1013.46
2018-06-17T16:55:01.396Z,1013.46
2018-06-17T17:00:01.516Z,1013.57
2018-06-17T17:10:01.694Z,1013.62
2018-06-17T17:15:01.661Z,1013.62
2018-06-17T17:30:01.633Z,1013.76
2018-06-17T17:45:01.545Z,1013.75
2018-06-17T17:50:01.490Z,1014.01
2018-06-17T17:55:01.515Z,1014.01
2018-06-17T18:00:01.518Z,1014.01
2018-06-17T18:10:01.509Z,1014.07
2018-06-17T18:15:01.525Z,1014.07
2018-06-17T18:20:01.554Z,1014.05
2018-06-17T18:25:01.672Z,1014.05
2018-06-17T18:30:01.529Z,1014.15
2018-06-17T18:40:01.534Z,1014.25
2018-06-17T18:45:01.510Z,1014.25
2018-06-17T18:50:01.506Z,1014.26
2018-06-17T19:00:01.533Z,1014.36
2018-06-17T19:10:01.522Z,1014.37
2018-06-17T19:15:01.555Z,1014.37
2018-06-17T19:20:01.554Z,1014.38
2018-06-17T19:25:01.550Z,1014.38
2018-06-17T19:30:01.534Z,1014.5
2018-06-17T19:35:01.527Z,1014.5
2018-06-17T19:40:01.530Z,1014.69
2018-06-17T19:45:01.515Z,1014.69
2018-06-17T19:50:01.603Z,1014.82
2018-06-17T19:55:01.537Z,1014.82
2018-06-17T20:00:01.541Z,1014.74
2018-06-17T20:05:01.545Z,1014.74
2018-06-17T20:10:01.553Z,1014.78
2018-06-17T20:15:01.544Z,1014.78
2018-06-17T20:20:01.523Z,1014.79
2018-06-17T20:25:01.549Z,1014.79
2018-06-17T20:30:01.507Z,1014.84
2018-06-17T20:35:01.561Z,1014.84
2018-06-17T20:40:01.579Z,1014.83
2018-06-17T20:45:01.537Z,1014.83
2018-06-17T20:50:01.550Z,1014.93
2018-06-17T21:00:01.584Z,1014.94
2018-06-17T21:10:01.536Z,1014.87
2018-06-17T21:15:01.497Z,1014.87
2018-06-17T21:20:01.606Z,1015.05
2018-06-17T21:30:01.533Z,1015.1
2018-06-17T21:40:01.386Z,1015.13
2018-06-17T21:45:01.411Z,1015.13
2018-06-17T21:50:01.338Z,1015.17
2018-06-17T21:55:01.433Z,1015.17
2018-06-17T22:00:01.472Z,1015.19
2018-06-17T22:05:01.393Z,1015.19
2018-06-17T22:10:01.461Z,1015.27
2018-06-17T22:15:01.420Z,1015.27
2018-06-17T22:20:01.480Z,1015.2
2018-06-17T22:30:01.536Z,1015.2
2018-06-17T22:45:01.499Z,1015.31
2018-06-17T22:55:01.520Z,1015.36
2018-06-17T23:00:01.517Z,1015.35
2018-06-17T23:10:01.579Z,1015.47
2018-06-17T23:15:01.428Z,1015.47
2018-06-17T23:30:01.546Z,1015.52
2018-06-17T23:40:01.445Z,1015.53
2018-06-17T23:45:01.379Z,1015.53
2018-06-17T23:50:01.608Z,1015.56
